sensor_id;sensor_type;location;lat;lon;timestamp;P1;durP1;ratioP1;P2;durP2;ratioP2
33076;SDS011;38790;51.964;5.924;2022-07-11T00:00:05;10.45;;;2.25;;
33076;SDS011;38790;51.964;5.924;2022-07-11T00:02:36;8.98;;;1.92;;
33076;SDS011;38790;51.964;5.924;2022-07-11T00:05:04;11.75;;;2.97;;
33076;SDS011;38790;51.964;5.924;2022-07-11T00:07:34;17.63;;;2.80;;
33076;SDS011;38790;51.964;5.924;2022-07-11T00:10:02;9.07;;;2.22;;
33076;SDS011;38790;51.964;5.924;2022-07-11T00:12:29;7.68;;;1.98;;
33076;SDS011;38790;51.964;5.924;2022-07-11T00:14:57;14.05;;;2.85;;
33076;SDS011;38790;51.964;5.924;2022-07-11T00:17:23;16.10;;;2.53;;
33076;SDS011;38790;51.964;5.924;2022-07-11T00:19:49;10.50;;;2.65;;
33076;SDS011;38790;51.964;5.924;2022-07-11T00:22:21;11.98;;;2.60;;
33076;SDS011;38790;51.964;5.924;2022-07-11T00:24:48;10.25;;;2.83;;
33076;SDS011;38790;51.964;5.924;2022-07-11T00:27:14;11.63;;;2.85;;
33076;SDS011;38790;51.964;5.924;2022-07-11T00:29:40;8.60;;;2.80;;
33076;SDS011;38790;51.964;5.924;2022-07-11T00:32:06;10.60;;;3.95;;
33076;SDS011;38790;51.964;5.924;2022-07-11T00:34:32;8.82;;;2.45;;
33076;SDS011;38790;51.964;5.924;2022-07-11T00:36:59;11.60;;;2.40;;
33076;SDS011;38790;51.964;5.924;2022-07-11T00:39:25;12.82;;;2.63;;
33076;SDS011;38790;51.964;5.924;2022-07-11T00:41:51;11.80;;;2.78;;
33076;SDS011;38790;51.964;5.924;2022-07-11T00:44:18;9.27;;;2.20;;
33076;SDS011;38790;51.964;5.924;2022-07-11T00:46:44;10.77;;;2.63;;
33076;SDS011;38790;51.964;5.924;2022-07-11T00:49:10;8.13;;;2.45;;
33076;SDS011;38790;51.964;5.924;2022-07-11T00:51:36;9.20;;;2.67;;
33076;SDS011;38790;51.964;5.924;2022-07-11T00:54:02;16.42;;;3.20;;
33076;SDS011;38790;51.964;5.924;2022-07-11T00:56:31;9.02;;;2.55;;
33076;SDS011;38790;51.964;5.924;2022-07-11T00:58:58;10.85;;;2.80;;
33076;SDS011;38790;51.964;5.924;2022-07-11T01:01:24;15.15;;;3.00;;
33076;SDS011;38790;51.964;5.924;2022-07-11T01:03:51;10.15;;;2.53;;
33076;SDS011;38790;51.964;5.924;2022-07-11T01:06:17;8.95;;;2.38;;
33076;SDS011;38790;51.964;5.924;2022-07-11T01:08:43;15.27;;;2.63;;
33076;SDS011;38790;51.964;5.924;2022-07-11T01:11:11;13.60;;;2.75;;
33076;SDS011;38790;51.964;5.924;2022-07-11T01:13:41;8.73;;;2.80;;
33076;SDS011;38790;51.964;5.924;2022-07-11T01:18:39;7.75;;;2.08;;
33076;SDS011;38790;51.964;5.924;2022-07-11T01:21:58;10.02;;;2.42;;
33076;SDS011;38790;51.964;5.924;2022-07-11T01:24:06;9.07;;;2.20;;
33076;SDS011;38790;51.964;5.924;2022-07-11T01:26:33;6.80;;;2.20;;
33076;SDS011;38790;51.964;5.924;2022-07-11T01:29:09;7.30;;;2.35;;
33076;SDS011;38790;51.964;5.924;2022-07-11T01:31:40;6.15;;;2.00;;
33076;SDS011;38790;51.964;5.924;2022-07-11T01:34:07;11.57;;;2.08;;
33076;SDS011;38790;51.964;5.924;2022-07-11T01:36:34;7.80;;;2.20;;
33076;SDS011;38790;51.964;5.924;2022-07-11T01:39:00;6.65;;;2.00;;
33076;SDS011;38790;51.964;5.924;2022-07-11T01:41:26;5.25;;;1.58;;
33076;SDS011;38790;51.964;5.924;2022-07-11T01:43:53;4.95;;;1.70;;
33076;SDS011;38790;51.964;5.924;2022-07-11T01:46:19;6.50;;;1.77;;
33076;SDS011;38790;51.964;5.924;2022-07-11T01:48:47;8.95;;;2.00;;
33076;SDS011;38790;51.964;5.924;2022-07-11T01:51:14;10.63;;;1.90;;
33076;SDS011;38790;51.964;5.924;2022-07-11T01:53:40;5.50;;;1.35;;
33076;SDS011;38790;51.964;5.924;2022-07-11T01:56:06;5.90;;;1.60;;
33076;SDS011;38790;51.964;5.924;2022-07-11T01:58:32;7.60;;;1.73;;
33076;SDS011;38790;51.964;5.924;2022-07-11T02:00:58;5.88;;;1.60;;
33076;SDS011;38790;51.964;5.924;2022-07-11T02:03:24;7.15;;;1.38;;
33076;SDS011;38790;51.964;5.924;2022-07-11T02:05:51;3.35;;;1.35;;
33076;SDS011;38790;51.964;5.924;2022-07-11T02:08:17;4.13;;;1.38;;
33076;SDS011;38790;51.964;5.924;2022-07-11T02:10:44;3.25;;;1.20;;
33076;SDS011;38790;51.964;5.924;2022-07-11T02:13:12;5.85;;;1.30;;
33076;SDS011;38790;51.964;5.924;2022-07-11T02:15:39;6.65;;;1.50;;
33076;SDS011;38790;51.964;5.924;2022-07-11T02:18:07;8.73;;;1.50;;
33076;SDS011;38790;51.964;5.924;2022-07-11T02:20:34;7.25;;;1.63;;
33076;SDS011;38790;51.964;5.924;2022-07-11T02:23:00;6.28;;;1.52;;
33076;SDS011;38790;51.964;5.924;2022-07-11T02:25:27;5.05;;;1.35;;
33076;SDS011;38790;51.964;5.924;2022-07-11T02:27:53;11.65;;;2.75;;
33076;SDS011;38790;51.964;5.924;2022-07-11T02:30:19;2.85;;;1.23;;
33076;SDS011;38790;51.964;5.924;2022-07-11T02:32:45;6.50;;;1.63;;
33076;SDS011;38790;51.964;5.924;2022-07-11T02:35:12;6.20;;;1.92;;
33076;SDS011;38790;51.964;5.924;2022-07-11T02:37:38;5.68;;;1.85;;
33076;SDS011;38790;51.964;5.924;2022-07-11T02:40:04;5.45;;;1.35;;
33076;SDS011;38790;51.964;5.924;2022-07-11T02:42:31;7.97;;;1.52;;
33076;SDS011;38790;51.964;5.924;2022-07-11T02:44:57;13.77;;;1.35;;
33076;SDS011;38790;51.964;5.924;2022-07-11T02:47:23;4.03;;;1.60;;
33076;SDS011;38790;51.964;5.924;2022-07-11T02:49:49;15.25;;;1.80;;
33076;SDS011;38790;51.964;5.924;2022-07-11T02:52:15;8.50;;;1.67;;
33076;SDS011;38790;51.964;5.924;2022-07-11T02:54:41;10.20;;;1.80;;
33076;SDS011;38790;51.964;5.924;2022-07-11T02:57:07;10.57;;;1.90;;
33076;SDS011;38790;51.964;5.924;2022-07-11T02:59:34;4.88;;;1.65;;
33076;SDS011;38790;51.964;5.924;2022-07-11T03:02:00;10.35;;;1.73;;
33076;SDS011;38790;51.964;5.924;2022-07-11T03:04:27;4.53;;;1.58;;
33076;SDS011;38790;51.964;5.924;2022-07-11T03:06:53;4.15;;;1.88;;
33076;SDS011;38790;51.964;5.924;2022-07-11T03:09:20;6.03;;;1.73;;
33076;SDS011;38790;51.964;5.924;2022-07-11T03:11:46;6.63;;;1.52;;
33076;SDS011;38790;51.964;5.924;2022-07-11T03:14:12;5.32;;;1.33;;
33076;SDS011;38790;51.964;5.924;2022-07-11T03:16:38;3.95;;;1.48;;
33076;SDS011;38790;51.964;5.924;2022-07-11T03:19:04;4.00;;;1.50;;
33076;SDS011;38790;51.964;5.924;2022-07-11T03:21:30;6.80;;;1.60;;
33076;SDS011;38790;51.964;5.924;2022-07-11T03:23:56;4.40;;;1.35;;
33076;SDS011;38790;51.964;5.924;2022-07-11T03:26:22;6.68;;;1.50;;
33076;SDS011;38790;51.964;5.924;2022-07-11T03:28:48;9.45;;;1.85;;
33076;SDS011;38790;51.964;5.924;2022-07-11T03:31:14;8.57;;;2.33;;
33076;SDS011;38790;51.964;5.924;2022-07-11T03:33:40;5.38;;;1.55;;
33076;SDS011;38790;51.964;5.924;2022-07-11T03:36:06;4.63;;;1.70;;
33076;SDS011;38790;51.964;5.924;2022-07-11T03:38:33;7.75;;;1.45;;
33076;SDS011;38790;51.964;5.924;2022-07-11T03:40:59;5.93;;;1.80;;
33076;SDS011;38790;51.964;5.924;2022-07-11T03:43:26;4.07;;;1.40;;
33076;SDS011;38790;51.964;5.924;2022-07-11T03:45:52;5.38;;;1.73;;
33076;SDS011;38790;51.964;5.924;2022-07-11T03:48:18;4.70;;;1.63;;
33076;SDS011;38790;51.964;5.924;2022-07-11T03:50:44;3.85;;;1.42;;
33076;SDS011;38790;51.964;5.924;2022-07-11T03:53:10;3.13;;;1.20;;
33076;SDS011;38790;51.964;5.924;2022-07-11T03:55:36;4.95;;;1.65;;
33076;SDS011;38790;51.964;5.924;2022-07-11T03:58:03;9.60;;;1.67;;
33076;SDS011;38790;51.964;5.924;2022-07-11T04:00:29;9.02;;;1.63;;
33076;SDS011;38790;51.964;5.924;2022-07-11T04:02:55;6.80;;;1.65;;
33076;SDS011;38790;51.964;5.924;2022-07-11T04:05:23;5.45;;;1.50;;
33076;SDS011;38790;51.964;5.924;2022-07-11T04:07:49;6.03;;;1.35;;
33076;SDS011;38790;51.964;5.924;2022-07-11T04:10:16;6.55;;;1.58;;
33076;SDS011;38790;51.964;5.924;2022-07-11T04:12:45;7.50;;;1.55;;
33076;SDS011;38790;51.964;5.924;2022-07-11T04:15:11;5.65;;;1.80;;
33076;SDS011;38790;51.964;5.924;2022-07-11T04:17:37;9.15;;;1.63;;
33076;SDS011;38790;51.964;5.924;2022-07-11T04:20:04;7.43;;;2.03;;
33076;SDS011;38790;51.964;5.924;2022-07-11T04:22:31;6.32;;;2.08;;
33076;SDS011;38790;51.964;5.924;2022-07-11T04:24:57;7.00;;;1.70;;
33076;SDS011;38790;51.964;5.924;2022-07-11T04:27:23;10.98;;;2.15;;
33076;SDS011;38790;51.964;5.924;2022-07-11T04:29:52;2.92;;;1.70;;
33076;SDS011;38790;51.964;5.924;2022-07-11T04:32:18;7.85;;;2.00;;
33076;SDS011;38790;51.964;5.924;2022-07-11T04:34:44;4.68;;;2.03;;
33076;SDS011;38790;51.964;5.924;2022-07-11T04:37:10;5.43;;;2.10;;
33076;SDS011;38790;51.964;5.924;2022-07-11T04:39:36;6.25;;;2.05;;
33076;SDS011;38790;51.964;5.924;2022-07-11T04:42:02;5.10;;;1.73;;
33076;SDS011;38790;51.964;5.924;2022-07-11T04:44:32;4.30;;;2.00;;
33076;SDS011;38790;51.964;5.924;2022-07-11T04:46:58;6.05;;;2.00;;
33076;SDS011;38790;51.964;5.924;2022-07-11T04:49:24;7.30;;;2.30;;
33076;SDS011;38790;51.964;5.924;2022-07-11T04:51:50;9.45;;;2.00;;
33076;SDS011;38790;51.964;5.924;2022-07-11T04:54:16;5.10;;;2.13;;
33076;SDS011;38790;51.964;5.924;2022-07-11T04:56:42;7.00;;;2.20;;
33076;SDS011;38790;51.964;5.924;2022-07-11T04:59:09;4.97;;;1.73;;
33076;SDS011;38790;51.964;5.924;2022-07-11T05:01:35;4.13;;;1.55;;
33076;SDS011;38790;51.964;5.924;2022-07-11T05:04:01;3.53;;;1.52;;
33076;SDS011;38790;51.964;5.924;2022-07-11T05:06:27;3.53;;;1.50;;
33076;SDS011;38790;51.964;5.924;2022-07-11T05:08:53;4.85;;;1.80;;
33076;SDS011;38790;51.964;5.924;2022-07-11T05:11:20;4.07;;;2.33;;
33076;SDS011;38790;51.964;5.924;2022-07-11T05:13:46;5.35;;;1.95;;
33076;SDS011;38790;51.964;5.924;2022-07-11T05:16:12;5.55;;;1.75;;
33076;SDS011;38790;51.964;5.924;2022-07-11T05:18:38;8.77;;;2.20;;
33076;SDS011;38790;51.964;5.924;2022-07-11T05:21:05;4.40;;;1.88;;
33076;SDS011;38790;51.964;5.924;2022-07-11T05:23:31;7.95;;;1.70;;
33076;SDS011;38790;51.964;5.924;2022-07-11T05:25:57;3.00;;;1.70;;
33076;SDS011;38790;51.964;5.924;2022-07-11T05:28:23;4.15;;;1.80;;
33076;SDS011;38790;51.964;5.924;2022-07-11T05:30:49;7.63;;;1.70;;
33076;SDS011;38790;51.964;5.924;2022-07-11T05:33:15;1.85;;;1.20;;
33076;SDS011;38790;51.964;5.924;2022-07-11T05:35:41;7.80;;;1.40;;
33076;SDS011;38790;51.964;5.924;2022-07-11T05:38:07;4.00;;;1.58;;
33076;SDS011;38790;51.964;5.924;2022-07-11T05:40:33;5.15;;;1.85;;
33076;SDS011;38790;51.964;5.924;2022-07-11T05:42:59;5.57;;;2.10;;
33076;SDS011;38790;51.964;5.924;2022-07-11T05:45:26;4.43;;;2.20;;
33076;SDS011;38790;51.964;5.924;2022-07-11T05:47:52;5.32;;;2.25;;
33076;SDS011;38790;51.964;5.924;2022-07-11T05:50:18;4.85;;;2.13;;
33076;SDS011;38790;51.964;5.924;2022-07-11T05:52:44;4.07;;;1.73;;
33076;SDS011;38790;51.964;5.924;2022-07-11T05:55:11;6.32;;;2.25;;
33076;SDS011;38790;51.964;5.924;2022-07-11T05:57:37;7.43;;;2.00;;
33076;SDS011;38790;51.964;5.924;2022-07-11T06:00:03;3.47;;;1.70;;
33076;SDS011;38790;51.964;5.924;2022-07-11T06:02:29;3.42;;;2.00;;
33076;SDS011;38790;51.964;5.924;2022-07-11T06:04:55;2.38;;;1.50;;
33076;SDS011;38790;51.964;5.924;2022-07-11T06:07:21;7.78;;;1.92;;
33076;SDS011;38790;51.964;5.924;2022-07-11T06:10:06;2.42;;;1.58;;
33076;SDS011;38790;51.964;5.924;2022-07-11T06:12:32;3.22;;;1.90;;
33076;SDS011;38790;51.964;5.924;2022-07-11T06:14:58;6.63;;;2.13;;
33076;SDS011;38790;51.964;5.924;2022-07-11T06:17:24;2.95;;;1.73;;
33076;SDS011;38790;51.964;5.924;2022-07-11T06:19:51;3.25;;;2.03;;
33076;SDS011;38790;51.964;5.924;2022-07-11T06:22:17;4.10;;;1.80;;
33076;SDS011;38790;51.964;5.924;2022-07-11T06:24:43;3.25;;;2.05;;
33076;SDS011;38790;51.964;5.924;2022-07-11T06:27:10;2.70;;;1.60;;
33076;SDS011;38790;51.964;5.924;2022-07-11T06:29:36;5.55;;;2.30;;
33076;SDS011;38790;51.964;5.924;2022-07-11T06:32:02;2.47;;;1.50;;
33076;SDS011;38790;51.964;5.924;2022-07-11T06:34:29;2.05;;;1.80;;
33076;SDS011;38790;51.964;5.924;2022-07-11T06:36:55;4.65;;;2.05;;
33076;SDS011;38790;51.964;5.924;2022-07-11T06:39:21;1.83;;;1.30;;
33076;SDS011;38790;51.964;5.924;2022-07-11T06:41:47;1.85;;;1.20;;
33076;SDS011;38790;51.964;5.924;2022-07-11T06:44:13;1.65;;;1.10;;
33076;SDS011;38790;51.964;5.924;2022-07-11T06:46:39;1.52;;;1.02;;
33076;SDS011;38790;51.964;5.924;2022-07-11T06:49:05;3.95;;;1.42;;
33076;SDS011;38790;51.964;5.924;2022-07-11T06:51:33;1.88;;;1.20;;
33076;SDS011;38790;51.964;5.924;2022-07-11T06:54:00;4.22;;;1.55;;
33076;SDS011;38790;51.964;5.924;2022-07-11T06:56:26;1.38;;;1.08;;
33076;SDS011;38790;51.964;5.924;2022-07-11T06:58:52;0.80;;;0.70;;
33076;SDS011;38790;51.964;5.924;2022-07-11T07:01:18;0.57;;;0.47;;
33076;SDS011;38790;51.964;5.924;2022-07-11T07:03:44;0.60;;;0.60;;
33076;SDS011;38790;51.964;5.924;2022-07-11T07:06:10;0.50;;;0.50;;
33076;SDS011;38790;51.964;5.924;2022-07-11T07:08:37;0.82;;;0.60;;
33076;SDS011;38790;51.964;5.924;2022-07-11T07:11:04;1.70;;;0.50;;
33076;SDS011;38790;51.964;5.924;2022-07-11T07:13:30;1.17;;;0.50;;
33076;SDS011;38790;51.964;5.924;2022-07-11T07:15:56;1.20;;;0.60;;
33076;SDS011;38790;51.964;5.924;2022-07-11T07:18:23;0.88;;;0.40;;
33076;SDS011;38790;51.964;5.924;2022-07-11T07:20:50;0.75;;;0.57;;
33076;SDS011;38790;51.964;5.924;2022-07-11T07:23:18;2.20;;;0.77;;
33076;SDS011;38790;51.964;5.924;2022-07-11T07:25:44;1.50;;;0.70;;
33076;SDS011;38790;51.964;5.924;2022-07-11T07:28:10;1.13;;;0.70;;
33076;SDS011;38790;51.964;5.924;2022-07-11T07:30:36;0.75;;;0.75;;
33076;SDS011;38790;51.964;5.924;2022-07-11T07:33:02;3.40;;;0.80;;
33076;SDS011;38790;51.964;5.924;2022-07-11T07:35:29;1.13;;;0.90;;
33076;SDS011;38790;51.964;5.924;2022-07-11T07:37:55;1.10;;;0.73;;
33076;SDS011;38790;51.964;5.924;2022-07-11T07:40:21;1.30;;;0.60;;
33076;SDS011;38790;51.964;5.924;2022-07-11T07:42:48;0.85;;;0.70;;
33076;SDS011;38790;51.964;5.924;2022-07-11T07:45:14;0.93;;;0.70;;
33076;SDS011;38790;51.964;5.924;2022-07-11T07:47:40;2.25;;;0.65;;
33076;SDS011;38790;51.964;5.924;2022-07-11T07:50:06;0.75;;;0.70;;
33076;SDS011;38790;51.964;5.924;2022-07-11T07:52:33;1.17;;;0.80;;
33076;SDS011;38790;51.964;5.924;2022-07-11T07:54:59;1.42;;;0.68;;
33076;SDS011;38790;51.964;5.924;2022-07-11T07:57:25;1.83;;;0.65;;
33076;SDS011;38790;51.964;5.924;2022-07-11T07:59:51;0.70;;;0.70;;
33076;SDS011;38790;51.964;5.924;2022-07-11T08:02:37;1.63;;;0.70;;
33076;SDS011;38790;51.964;5.924;2022-07-11T08:05:03;1.92;;;0.80;;
33076;SDS011;38790;51.964;5.924;2022-07-11T08:07:30;1.70;;;0.80;;
33076;SDS011;38790;51.964;5.924;2022-07-11T08:09:56;1.05;;;0.82;;
33076;SDS011;38790;51.964;5.924;2022-07-11T08:12:22;0.82;;;0.57;;
33076;SDS011;38790;51.964;5.924;2022-07-11T08:14:49;0.40;;;0.40;;
33076;SDS011;38790;51.964;5.924;2022-07-11T08:17:15;0.60;;;0.40;;
33076;SDS011;38790;51.964;5.924;2022-07-11T08:19:41;1.40;;;0.60;;
33076;SDS011;38790;51.964;5.924;2022-07-11T08:22:07;0.77;;;0.52;;
33076;SDS011;38790;51.964;5.924;2022-07-11T08:24:33;1.40;;;0.60;;
33076;SDS011;38790;51.964;5.924;2022-07-11T08:26:59;1.30;;;0.98;;
33076;SDS011;38790;51.964;5.924;2022-07-11T08:29:25;0.57;;;0.45;;
33076;SDS011;38790;51.964;5.924;2022-07-11T08:31:51;1.10;;;0.57;;
33076;SDS011;38790;51.964;5.924;2022-07-11T08:34:17;0.43;;;0.43;;
33076;SDS011;38790;51.964;5.924;2022-07-11T08:36:43;0.60;;;0.40;;
33076;SDS011;38790;51.964;5.924;2022-07-11T08:39:09;0.40;;;0.40;;
33076;SDS011;38790;51.964;5.924;2022-07-11T08:41:37;1.00;;;0.43;;
33076;SDS011;38790;51.964;5.924;2022-07-11T08:44:08;0.80;;;0.63;;
33076;SDS011;38790;51.964;5.924;2022-07-11T08:46:34;0.40;;;0.40;;
33076;SDS011;38790;51.964;5.924;2022-07-11T08:49:03;0.77;;;0.50;;
33076;SDS011;38790;51.964;5.924;2022-07-11T08:51:30;3.03;;;0.60;;
33076;SDS011;38790;51.964;5.924;2022-07-11T08:53:57;1.17;;;0.50;;
33076;SDS011;38790;51.964;5.924;2022-07-11T08:56:24;0.80;;;0.40;;
33076;SDS011;38790;51.964;5.924;2022-07-11T08:58:52;1.08;;;0.50;;
33076;SDS011;38790;51.964;5.924;2022-07-11T09:01:20;0.63;;;0.40;;
33076;SDS011;38790;51.964;5.924;2022-07-11T09:03:58;0.68;;;0.45;;
33076;SDS011;38790;51.964;5.924;2022-07-11T09:06:24;2.03;;;0.68;;
33076;SDS011;38790;51.964;5.924;2022-07-11T09:08:51;0.55;;;0.55;;
33076;SDS011;38790;51.964;5.924;2022-07-11T09:11:17;1.73;;;0.80;;
33076;SDS011;38790;51.964;5.924;2022-07-11T09:13:43;1.75;;;0.95;;
33076;SDS011;38790;51.964;5.924;2022-07-11T09:16:09;1.00;;;0.73;;
33076;SDS011;38790;51.964;5.924;2022-07-11T09:18:37;1.40;;;0.65;;
33076;SDS011;38790;51.964;5.924;2022-07-11T09:21:07;0.60;;;0.50;;
33076;SDS011;38790;51.964;5.924;2022-07-11T09:23:53;1.55;;;0.70;;
33076;SDS011;38790;51.964;5.924;2022-07-11T09:26:39;1.45;;;0.70;;
33076;SDS011;38790;51.964;5.924;2022-07-11T09:29:07;0.60;;;0.60;;
33076;SDS011;38790;51.964;5.924;2022-07-11T09:31:37;0.57;;;0.57;;
33076;SDS011;38790;51.964;5.924;2022-07-11T09:34:09;6.60;;;0.80;;
33076;SDS011;38790;51.964;5.924;2022-07-11T09:36:52;0.60;;;0.50;;
33076;SDS011;38790;51.964;5.924;2022-07-11T09:39:21;0.93;;;0.70;;
33076;SDS011;38790;51.964;5.924;2022-07-11T09:41:49;3.33;;;0.68;;
33076;SDS011;38790;51.964;5.924;2022-07-11T09:44:23;1.17;;;0.90;;
33076;SDS011;38790;51.964;5.924;2022-07-11T09:46:54;0.63;;;0.63;;
33076;SDS011;38790;51.964;5.924;2022-07-11T09:49:32;1.75;;;0.85;;
33076;SDS011;38790;51.964;5.924;2022-07-11T09:52:20;1.55;;;0.68;;
33076;SDS011;38790;51.964;5.924;2022-07-11T09:54:59;1.95;;;1.25;;
33076;SDS011;38790;51.964;5.924;2022-07-11T10:00:03;1.35;;;0.80;;
33076;SDS011;38790;51.964;5.924;2022-07-11T10:02:32;2.95;;;0.70;;
33076;SDS011;38790;51.964;5.924;2022-07-11T10:04:58;1.77;;;0.95;;
33076;SDS011;38790;51.964;5.924;2022-07-11T10:07:28;0.57;;;0.57;;
33076;SDS011;38790;51.964;5.924;2022-07-11T10:09:56;0.98;;;0.70;;
33076;SDS011;38790;51.964;5.924;2022-07-11T10:12:24;1.55;;;0.90;;
33076;SDS011;38790;51.964;5.924;2022-07-11T10:14:52;2.58;;;0.90;;
33076;SDS011;38790;51.964;5.924;2022-07-11T10:22:29;2.08;;;0.80;;
33076;SDS011;38790;51.964;5.924;2022-07-11T10:25:02;2.50;;;1.00;;
33076;SDS011;38790;51.964;5.924;2022-07-11T10:27:48;3.42;;;1.60;;
33076;SDS011;38790;51.964;5.924;2022-07-11T10:33:09;4.78;;;2.45;;
33076;SDS011;38790;51.964;5.924;2022-07-11T10:35:35;2.00;;;1.00;;
33076;SDS011;38790;51.964;5.924;2022-07-11T10:38:05;1.08;;;0.98;;
33076;SDS011;38790;51.964;5.924;2022-07-11T10:40:42;0.60;;;0.60;;
33076;SDS011;38790;51.964;5.924;2022-07-11T10:43:11;0.52;;;0.50;;
33076;SDS011;38790;51.964;5.924;2022-07-11T10:48:30;1.17;;;0.60;;
33076;SDS011;38790;51.964;5.924;2022-07-11T10:53:39;1.13;;;0.70;;
33076;SDS011;38790;51.964;5.924;2022-07-11T10:59:16;1.15;;;0.60;;
33076;SDS011;38790;51.964;5.924;2022-07-11T11:15:33;3.42;;;0.50;;
33076;SDS011;38790;51.964;5.924;2022-07-11T11:24:12;0.98;;;0.55;;
33076;SDS011;38790;51.964;5.924;2022-07-11T11:26:24;0.80;;;0.60;;
33076;SDS011;38790;51.964;5.924;2022-07-11T11:29:09;0.80;;;0.65;;
33076;SDS011;38790;51.964;5.924;2022-07-11T11:31:37;1.10;;;0.57;;
33076;SDS011;38790;51.964;5.924;2022-07-11T11:34:04;0.70;;;0.60;;
33076;SDS011;38790;51.964;5.924;2022-07-11T11:36:30;1.75;;;0.40;;
33076;SDS011;38790;51.964;5.924;2022-07-11T11:39:00;0.82;;;0.63;;
33076;SDS011;38790;51.964;5.924;2022-07-11T11:41:26;1.42;;;0.98;;
33076;SDS011;38790;51.964;5.924;2022-07-11T11:43:57;1.25;;;0.60;;
33076;SDS011;38790;51.964;5.924;2022-07-11T11:46:25;3.78;;;0.90;;
33076;SDS011;38790;51.964;5.924;2022-07-11T11:48:56;1.25;;;0.65;;
33076;SDS011;38790;51.964;5.924;2022-07-11T11:51:24;1.95;;;0.80;;
33076;SDS011;38790;51.964;5.924;2022-07-11T11:53:53;3.28;;;0.70;;
33076;SDS011;38790;51.964;5.924;2022-07-11T11:56:28;1.02;;;0.65;;
33076;SDS011;38790;51.964;5.924;2022-07-11T11:58:56;0.82;;;0.82;;
33076;SDS011;38790;51.964;5.924;2022-07-11T12:01:27;1.10;;;0.60;;
33076;SDS011;38790;51.964;5.924;2022-07-11T12:03:56;0.68;;;0.68;;
33076;SDS011;38790;51.964;5.924;2022-07-11T12:06:26;1.45;;;0.73;;
33076;SDS011;38790;51.964;5.924;2022-07-11T12:09:03;1.70;;;0.98;;
33076;SDS011;38790;51.964;5.924;2022-07-11T12:11:32;3.05;;;1.95;;
33076;SDS011;38790;51.964;5.924;2022-07-11T12:14:00;0.75;;;0.70;;
33076;SDS011;38790;51.964;5.924;2022-07-11T12:16:29;1.45;;;0.85;;
33076;SDS011;38790;51.964;5.924;2022-07-11T12:19:11;0.52;;;0.50;;
33076;SDS011;38790;51.964;5.924;2022-07-11T12:21:38;3.20;;;0.90;;
33076;SDS011;38790;51.964;5.924;2022-07-11T12:24:06;1.98;;;0.70;;
33076;SDS011;38790;51.964;5.924;2022-07-11T12:26:35;2.70;;;0.93;;
33076;SDS011;38790;51.964;5.924;2022-07-11T12:29:13;1.48;;;0.52;;
33076;SDS011;38790;51.964;5.924;2022-07-11T12:31:51;3.00;;;0.50;;
33076;SDS011;38790;51.964;5.924;2022-07-11T12:34:22;0.60;;;0.57;;
33076;SDS011;38790;51.964;5.924;2022-07-11T12:39:30;4.30;;;0.73;;
33076;SDS011;38790;51.964;5.924;2022-07-11T12:41:58;1.30;;;1.10;;
33076;SDS011;38790;51.964;5.924;2022-07-11T12:44:25;2.95;;;0.70;;
33076;SDS011;38790;51.964;5.924;2022-07-11T12:47:15;1.77;;;0.75;;
33076;SDS011;38790;51.964;5.924;2022-07-11T12:49:50;0.70;;;0.60;;
33076;SDS011;38790;51.964;5.924;2022-07-11T12:52:19;0.57;;;0.57;;
33076;SDS011;38790;51.964;5.924;2022-07-11T12:54:45;1.70;;;0.60;;
33076;SDS011;38790;51.964;5.924;2022-07-11T12:57:20;1.92;;;0.77;;
33076;SDS011;38790;51.964;5.924;2022-07-11T12:59:46;1.35;;;0.80;;
33076;SDS011;38790;51.964;5.924;2022-07-11T13:02:12;0.73;;;0.70;;
33076;SDS011;38790;51.964;5.924;2022-07-11T13:04:47;0.80;;;0.80;;
33076;SDS011;38790;51.964;5.924;2022-07-11T13:07:28;0.47;;;0.30;;
33076;SDS011;38790;51.964;5.924;2022-07-11T13:10:21;2.17;;;0.55;;
33076;SDS011;38790;51.964;5.924;2022-07-11T13:12:51;0.25;;;0.25;;
33076;SDS011;38790;51.964;5.924;2022-07-11T13:15:20;1.02;;;0.40;;
33076;SDS011;38790;51.964;5.924;2022-07-11T13:17:51;1.33;;;0.63;;
33076;SDS011;38790;51.964;5.924;2022-07-11T13:20:20;0.85;;;0.57;;
33076;SDS011;38790;51.964;5.924;2022-07-11T13:22:48;1.00;;;0.60;;
33076;SDS011;38790;51.964;5.924;2022-07-11T13:25:16;1.05;;;0.50;;
33076;SDS011;38790;51.964;5.924;2022-07-11T13:27:46;3.42;;;0.63;;
33076;SDS011;38790;51.964;5.924;2022-07-11T13:30:14;0.47;;;0.40;;
33076;SDS011;38790;51.964;5.924;2022-07-11T13:32:42;0.50;;;0.47;;
33076;SDS011;38790;51.964;5.924;2022-07-11T13:35:10;1.42;;;0.40;;
33076;SDS011;38790;51.964;5.924;2022-07-11T13:37:36;1.08;;;0.40;;
33076;SDS011;38790;51.964;5.924;2022-07-11T13:40:09;1.98;;;0.47;;
33076;SDS011;38790;51.964;5.924;2022-07-11T13:42:38;2.05;;;0.77;;
33076;SDS011;38790;51.964;5.924;2022-07-11T13:45:06;0.80;;;0.38;;
33076;SDS011;38790;51.964;5.924;2022-07-11T13:47:33;3.83;;;0.35;;
33076;SDS011;38790;51.964;5.924;2022-07-11T13:50:00;0.68;;;0.50;;
33076;SDS011;38790;51.964;5.924;2022-07-11T13:52:27;0.57;;;0.55;;
33076;SDS011;38790;51.964;5.924;2022-07-11T13:54:54;1.83;;;0.50;;
33076;SDS011;38790;51.964;5.924;2022-07-11T13:57:20;0.22;;;0.22;;
33076;SDS011;38790;51.964;5.924;2022-07-11T13:59:47;0.60;;;0.40;;
33076;SDS011;38790;51.964;5.924;2022-07-11T14:02:13;0.40;;;0.30;;
33076;SDS011;38790;51.964;5.924;2022-07-11T14:04:40;0.82;;;0.45;;
33076;SDS011;38790;51.964;5.924;2022-07-11T14:07:07;3.65;;;0.50;;
33076;SDS011;38790;51.964;5.924;2022-07-11T14:09:34;0.50;;;0.30;;
33076;SDS011;38790;51.964;5.924;2022-07-11T14:12:00;0.30;;;0.30;;
33076;SDS011;38790;51.964;5.924;2022-07-11T14:14:27;0.30;;;0.30;;
33076;SDS011;38790;51.964;5.924;2022-07-11T14:16:54;1.65;;;0.60;;
33076;SDS011;38790;51.964;5.924;2022-07-11T14:19:20;0.40;;;0.30;;
33076;SDS011;38790;51.964;5.924;2022-07-11T14:21:46;0.20;;;0.20;;
33076;SDS011;38790;51.964;5.924;2022-07-11T14:24:12;0.40;;;0.30;;
33076;SDS011;38790;51.964;5.924;2022-07-11T14:26:39;0.30;;;0.20;;
33076;SDS011;38790;51.964;5.924;2022-07-11T14:29:05;0.75;;;0.30;;
33076;SDS011;38790;51.964;5.924;2022-07-11T14:31:31;0.10;;;0.10;;
33076;SDS011;38790;51.964;5.924;2022-07-11T14:33:58;4.50;;;0.32;;
33076;SDS011;38790;51.964;5.924;2022-07-11T14:36:24;0.32;;;0.20;;
33076;SDS011;38790;51.964;5.924;2022-07-11T14:38:51;1.17;;;0.28;;
33076;SDS011;38790;51.964;5.924;2022-07-11T14:41:18;1.70;;;0.45;;
33076;SDS011;38790;51.964;5.924;2022-07-11T14:43:45;3.85;;;0.25;;
33076;SDS011;38790;51.964;5.924;2022-07-11T14:46:12;0.55;;;0.30;;
33076;SDS011;38790;51.964;5.924;2022-07-11T14:48:39;0.70;;;0.43;;
33076;SDS011;38790;51.964;5.924;2022-07-11T14:51:06;0.52;;;0.25;;
33076;SDS011;38790;51.964;5.924;2022-07-11T14:53:33;0.25;;;0.20;;
33076;SDS011;38790;51.964;5.924;2022-07-11T14:55:59;0.93;;;0.40;;
33076;SDS011;38790;51.964;5.924;2022-07-11T14:58:25;0.50;;;0.30;;
33076;SDS011;38790;51.964;5.924;2022-07-11T15:00:51;0.75;;;0.40;;
33076;SDS011;38790;51.964;5.924;2022-07-11T15:03:18;0.32;;;0.30;;
33076;SDS011;38790;51.964;5.924;2022-07-11T15:06:02;1.98;;;0.50;;
33076;SDS011;38790;51.964;5.924;2022-07-11T15:08:33;0.95;;;0.30;;
33076;SDS011;38790;51.964;5.924;2022-07-11T15:11:18;0.30;;;0.30;;
33076;SDS011;38790;51.964;5.924;2022-07-11T15:14:03;0.35;;;0.35;;
33076;SDS011;38790;51.964;5.924;2022-07-11T15:16:30;1.27;;;0.40;;
33076;SDS011;38790;51.964;5.924;2022-07-11T15:19:00;0.98;;;0.40;;
33076;SDS011;38790;51.964;5.924;2022-07-11T15:21:27;0.98;;;0.30;;
33076;SDS011;38790;51.964;5.924;2022-07-11T15:23:54;0.45;;;0.30;;
33076;SDS011;38790;51.964;5.924;2022-07-11T15:26:20;0.65;;;0.40;;
33076;SDS011;38790;51.964;5.924;2022-07-11T15:28:47;0.40;;;0.25;;
33076;SDS011;38790;51.964;5.924;2022-07-11T15:31:13;0.80;;;0.28;;
33076;SDS011;38790;51.964;5.924;2022-07-11T15:33:40;4.18;;;0.40;;